Hovedside
METAR-TAF:

METAR-TAF

Lufthavner :

Brønnøysund, Norge

Brønnøysund lufthavn

breddegrad: 65-28N, lengdegrad: 012-13E, høyde over havet: 0 m

Gjeldene værobservasjon

Denne rapporten ble laget for 1 time og 14 minutter siden, klokken 09:50 UTC
Vind 7 kt fra Nord-nordvest, skiftende mellom Vest-nordvest og Nord
Temperatur 5°C
Luftfuktighet 52%
Trykk 1010 hPa
Sikt 10 km eller mer
Spredte skyer i en høyde av 4000 ft

METAR: ENBN 270950Z 33007KT 300V010 9999 SCT040 05/M04 Q1010

Tid: 13:04 (11:04 UTC)

Varsel

Denne rapporten ble laget for 3 timer og 4 minutter siden, klokken 08:00 UTC
Varsel gyldig fra 27. klokken 09 UTC til 27. klokken 18 UTC
Vind 5 kt fra Nord
Sikt 10 km eller mer
Få skyer i en høyde av 2500 ft
Midlertidig
fra 27. klokken 09 UTC til 27. klokken 12 UTC
Få skyer i en høyde av 1500 ft, Bygeskyer.

TAF: ENBN 270800Z 2709/2718 35005KT 9999 FEW025 TEMPO 2709/2712 FEW015CB

Værobservasjoner og værvarsel for over 4000 flyplasser (METAR- og TAF-rapporter).

Tilgjengelige stasjoner er representert av de røde og gule prikkene på kartet.

Hold musepekeren over prikken for å se navnet på stasjonen.

Klikk så for å se værobservasjoner og -varsler.

For å forandre kartet kan du klikke på den grønne knappen med svart kryss for å zoome inn, på den grønne knappen med strek for å zoome ut, eller på de grønne pilene for å se tilstøtende kart.


METAR-TAF: